PWSweather.com
Personal Weather Stations
Station Observations
BLACKWELL
Blackwell, AlfretonGB DE55

BlackwellAlfretonGB DE55

Lat: 53.12076, Lon: -1.354978

Elevation: 410

Station Type: Vantage Pro

High Low Average
Temperature 48.0°F8.9°C 41.4°F5.2°C 44.7°F7.1°C
Dew Point 41.2°F5.1°C 37.8°F3.2°C 39.6°F4.2°C
Winds 6.0 mph 9.7 kmh Calm Calm 3.0 mph SW4.8 kmh SW
Wind Gusts 16.0 mph25.7 kmh 4.0 mph6.4 kmh 10.0 mph16.1 kmh
Humidity 91% 74% 82%
Pressure 29.81 in1009.5 mb 29.39 in995.3 mb -
Precipitation 0.12 in3.0 mm - -
Hour Temp Dew Point Humidity Winds Wind Gusts Pressure Precip Precip Rate Daily Precip Total
12:44 AM 42.6°F5.9°C 37.8°F3.2°C 83% 5.0 mph SW8.0 kmh SW 13.0 mph20.9 kmh 29.39 in995.3 mb 0.00 in0.0 mm 0.00 in0.0 mm 0.00 in0.0 mm
01:44 AM 42.6°F5.9°C 38.1°F3.4°C 84% 5.0 mph SW8.0 kmh SW 11.0 mph17.7 kmh 29.39 in995.3 mb 0.00 in0.0 mm 0.00 in0.0 mm 0.00 in0.0 mm
02:44 AM 41.4°F5.2°C 38.7°F3.7°C 90% 5.0 mph SW8.0 kmh SW 11.0 mph17.7 kmh 29.39 in995.3 mb 0.02 in0.5 mm 0.00 in0.0 mm 0.03 in0.8 mm
03:44 AM 41.9°F5.5°C 39.4°F4.1°C 91% 4.0 mph SW6.4 kmh SW 10.0 mph16.1 kmh 29.40 in995.6 mb 0.02 in0.5 mm 0.00 in0.0 mm 0.05 in1.3 mm
04:44 AM 43.3°F6.3°C 39.7°F4.3°C 87% 4.0 mph SW6.4 kmh SW 13.0 mph20.9 kmh 29.41 in995.9 mb 0.01 in0.3 mm 0.00 in0.0 mm 0.06 in1.5 mm
05:44 AM 43.2°F6.2°C 39.7°F4.3°C 88% 4.0 mph SW6.4 kmh SW 11.0 mph17.7 kmh 29.43 in996.6 mb 0.02 in0.5 mm 0.00 in0.0 mm 0.07 in1.8 mm
06:44 AM 43.3°F6.3°C 40.1°F4.5°C 88% 4.0 mph SW6.4 kmh SW 11.0 mph17.7 kmh 29.45 in997.3 mb 0.01 in0.3 mm 0.00 in0.0 mm 0.08 in2.0 mm
07:44 AM 44.8°F7.1°C 39.9°F4.4°C 83% 4.0 mph SW6.4 kmh SW 9.0 mph14.5 kmh 29.50 in999.0 mb 0.01 in0.3 mm 0.00 in0.0 mm 0.09 in2.3 mm
08:44 AM 45.7°F7.6°C 39.7°F4.3°C 80% 5.0 mph SW8.0 kmh SW 16.0 mph25.7 kmh 29.51 in999.3 mb 0.02 in0.5 mm 0.00 in0.0 mm 0.10 in2.5 mm
09:44 AM 46.2°F7.9°C 40.6°F4.8°C 81% 6.0 mph SW9.7 kmh SW 14.0 mph22.5 kmh 29.54 in1000.3 mb 0.00 in0.0 mm 0.00 in0.0 mm 0.10 in2.5 mm
10:44 AM 47.1°F8.4°C 40.6°F4.8°C 78% 5.0 mph SW8.0 kmh SW 12.0 mph19.3 kmh 29.59 in1002.0 mb 0.00 in0.0 mm 0.00 in0.0 mm 0.10 in2.5 mm
11:44 AM 45.3°F7.4°C 41.0°F5.0°C 85% 2.0 mph SW3.2 kmh SW 7.0 mph11.3 kmh 29.65 in1004.1 mb 0.02 in0.5 mm 0.00 in0.0 mm 0.12 in3.0 mm
12:44 PM 45.9°F7.7°C 41.0°F5.0°C 83% 3.0 mph SW4.8 kmh SW 9.0 mph14.5 kmh 29.69 in1005.4 mb 0.00 in0.0 mm 0.00 in0.0 mm 0.12 in3.0 mm
01:44 PM 47.1°F8.4°C 41.2°F5.1°C 80% 3.0 mph SW4.8 kmh SW 10.0 mph16.1 kmh 29.72 in1006.4 mb 0.00 in0.0 mm 0.00 in0.0 mm 0.12 in3.0 mm
02:44 PM 46.8°F8.2°C 40.5°F4.7°C 79% 4.0 mph SW6.4 kmh SW 12.0 mph19.3 kmh 29.74 in1007.1 mb 0.00 in0.0 mm 0.00 in0.0 mm 0.12 in3.0 mm
03:44 PM 48.0°F8.9°C 40.3°F4.6°C 74% 3.0 mph SW4.8 kmh SW 9.0 mph14.5 kmh 29.77 in1008.1 mb 0.00 in0.0 mm 0.00 in0.0 mm 0.12 in3.0 mm
04:44 PM 46.8°F8.2°C 38.8°F3.8°C 74% 2.0 mph SW3.2 kmh SW 9.0 mph14.5 kmh 29.81 in1009.5 mb 0.00 in0.0 mm 0.00 in0.0 mm 0.12 in3.0 mm
05:44 PM 45.0°F7.2°C 38.1°F3.4°C 77% 1.0 mph SW1.6 kmh SW 5.0 mph8.0 kmh 29.80 in1009.1 mb 0.00 in0.0 mm 0.00 in0.0 mm 0.12 in3.0 mm
06:44 PM 45.3°F7.4°C 38.3°F3.5°C 76% Calm Calm 4.0 mph6.4 kmh 29.81 in1009.5 mb 0.00 in0.0 mm 0.00 in0.0 mm 0.12 in3.0 mm
07:44 PM 45.1°F7.3°C 38.5°F3.6°C 77% 2.0 mph SW3.2 kmh SW 6.0 mph9.7 kmh 29.81 in1009.5 mb 0.00 in0.0 mm 0.00 in0.0 mm 0.12 in3.0 mm
08:44 PM 44.8°F7.1°C 39.0°F3.9°C 80% 2.0 mph SW3.2 kmh SW 8.0 mph12.9 kmh 29.81 in1009.5 mb 0.00 in0.0 mm 0.00 in0.0 mm 0.12 in3.0 mm
09:44 PM 44.4°F6.9°C 39.6°F4.2°C 83% 3.0 mph SW4.8 kmh SW 7.0 mph11.3 kmh 29.79 in1008.8 mb 0.00 in0.0 mm 0.00 in0.0 mm 0.12 in3.0 mm
10:44 PM 43.3°F6.3°C 39.7°F4.3°C 87% 2.0 mph SW3.2 kmh SW 7.0 mph11.3 kmh 29.78 in1008.5 mb 0.00 in0.0 mm 0.00 in0.0 mm 0.12 in3.0 mm
11:44 PM 42.8°F6.0°C 40.1°F4.5°C 90% 2.0 mph WSW3.2 kmh WSW 6.0 mph9.7 kmh 29.76 in1007.8 mb 0.00 in0.0 mm 0.00 in0.0 mm 0.12 in3.0 mm